Time;durP1;ratioP1;P1;durP2;ratioP2;P2;SDS_P1;SDS_P2;PMS_P1;PMS_P2;Temp;Humidity;BMP_temperature;BMP_pressure;BME280_temperature;BME280_humidity;BME280_pressure;Samples;Min_cycle;Max_cycle;Signal;HPM_P1;HPM_P2
2022/05/30 00:01:05;;;;;;;;;;;9.40;99.90;;;;;;5002494;28;35210;-55
2022/05/30 00:03:32;;;;;;;;;;;9.40;99.90;;;;;;5002644;28;36665;-55
2022/05/30 00:05:59;;;;;;;;;;;9.50;99.90;;;;;;5003537;28;39305;-55
2022/05/30 00:08:26;;;;;;;;;;;9.40;99.90;;;;;;5003557;28;37388;-55
2022/05/30 00:10:53;;;;;;;;;;;9.40;99.90;;;;;;5003552;28;36222;-56
2022/05/30 00:13:20;;;;;;;;;;;9.40;99.90;;;;;;5003872;28;37644;-54
2022/05/30 00:15:48;;;;;;;;;;;9.40;99.90;;;;;;5003406;28;39117;-55
2022/05/30 00:18:16;;;;;;;;;;;9.30;99.90;;;;;;5003436;28;37819;-55
2022/05/30 00:20:43;;;;;;;;;;;9.30;99.90;;;;;;5002922;28;36160;-55
2022/05/30 00:23:11;;;;;;;;;;;9.20;99.90;;;;;;5004174;28;38020;-55
2022/05/30 00:25:39;;;;;;;;;;;9.20;99.90;;;;;;5004161;28;38588;-55
2022/05/30 00:28:06;;;;;;;;;;;9.10;99.90;;;;;;5003503;28;37439;-55
2022/05/30 00:30:34;;;;;;;;;;;9.00;99.90;;;;;;5004910;28;35097;-56
2022/05/30 00:33:01;;;;;;;;;;;9.00;99.90;;;;;;5004073;28;39666;-55
2022/05/30 00:35:29;;;;;;;;;;;9.00;99.90;;;;;;5003851;28;38194;-55
2022/05/30 00:37:56;;;;;;;;;;;9.00;99.90;;;;;;5002928;28;37439;-55
2022/05/30 00:40:23;;;;;;;;;;;9.00;99.90;;;;;;5002923;28;37422;-54
2022/05/30 00:42:50;;;;;;;;;;;8.90;99.90;;;;;;5002828;28;36582;-55
2022/05/30 00:45:17;;;;;;;;;;;8.90;99.90;;;;;;5003329;28;39072;-55
2022/05/30 00:47:44;;;;;;;;;;;8.90;99.90;;;;;;5003678;28;37499;-55
2022/05/30 00:50:11;;;;;;;;;;;8.90;99.90;;;;;;5003006;28;36854;-55
2022/05/30 00:52:42;;;;;;;;;;;8.90;99.90;;;;;;5003687;28;38512;-55
2022/05/30 00:55:10;;;;;;;;;;;8.90;99.90;;;;;;5003668;28;37102;-55
2022/05/30 00:57:38;;;;;;;;;;;9.00;99.90;;;;;;5002535;28;37440;-55
2022/05/30 01:00:08;;;;;;;;;;;8.90;99.90;;;;;;5002966;28;36767;-55
2022/05/30 01:02:36;;;;;;;;;;;8.90;99.90;;;;;;5003012;28;38592;-55
2022/05/30 01:07:50;;;;;;;;;;;9.00;99.90;;;;;;5002478;28;40459;-55
2022/05/30 01:10:18;;;;;;;;;;;9.00;99.90;;;;;;5003700;28;37057;-55
2022/05/30 01:12:49;;;;;;;;;;;9.00;99.90;;;;;;5003471;28;37818;-55
2022/05/30 01:15:17;;;;;;;;;;;8.90;99.90;;;;;;5003290;28;39801;-55
2022/05/30 01:17:48;;;;;;;;;;;8.90;99.90;;;;;;5002876;28;36364;-55
2022/05/30 01:20:21;;;;;;;;;;;8.90;99.90;;;;;;5003093;28;35841;-55
2022/05/30 01:23:01;;;;;;;;;;;8.90;99.90;;;;;;5003488;28;37629;-55
2022/05/30 01:25:41;;;;;;;;;;;8.80;99.90;;;;;;5003467;28;37334;-55
2022/05/30 01:28:11;;;;;;;;;;;8.80;99.90;;;;;;5002404;28;38893;-55
2022/05/30 01:30:40;;;;;;;;;;;8.80;99.90;;;;;;5003077;28;36051;-55
2022/05/30 01:33:07;;;;;;;;;;;8.80;99.90;;;;;;5002857;28;37943;-54
2022/05/30 01:35:34;;;;;;;;;;;8.80;99.90;;;;;;5002632;28;38539;-55
2022/05/30 01:38:01;;;;;;;;;;;8.80;99.90;;;;;;5002729;28;36304;-55
2022/05/30 01:40:29;;;;;;;;;;;8.80;99.90;;;;;;5003249;28;37813;-54
2022/05/30 01:42:56;;;;;;;;;;;8.80;99.90;;;;;;5002257;28;36616;-55
2022/05/30 01:45:24;;;;;;;;;;;8.90;99.90;;;;;;5003713;28;38188;-55
2022/05/30 01:47:53;;;;;;;;;;;8.90;99.90;;;;;;5002838;28;38313;-54
2022/05/30 01:50:21;;;;;;;;;;;8.90;99.90;;;;;;5002827;28;36216;-55
2022/05/30 01:52:48;;;;;;;;;;;8.80;99.90;;;;;;5003431;28;39239;-55
2022/05/30 01:55:15;;;;;;;;;;;8.80;99.90;;;;;;5003215;28;37992;-55
2022/05/30 01:57:42;;;;;;;;;;;8.80;99.90;;;;;;5002986;28;40141;-55
2022/05/30 02:00:10;;;;;;;;;;;8.80;99.90;;;;;;5002992;28;35086;-55
2022/05/30 02:02:37;;;;;;;;;;;8.80;99.90;;;;;;5002682;28;36338;-54
2022/05/30 02:05:06;;;;;;;;;;;8.80;99.90;;;;;;5002366;28;39996;-55
2022/05/30 02:07:33;;;;;;;;;;;8.80;99.90;;;;;;5002542;28;37670;-55
2022/05/30 02:10:10;;;;;;;;;;;8.80;99.90;;;;;;5140430;27;19927;-56
2022/05/30 02:12:37;;;;;;;;;;;8.80;99.90;;;;;;5135015;27;37128;-55
2022/05/30 02:15:04;;;;;;;;;;;8.90;99.90;;;;;;5136154;27;36292;-56
2022/05/30 02:17:31;;;;;;;;;;;8.80;99.90;;;;;;5133761;27;37537;-56
2022/05/30 02:19:58;;;;;;;;;;;8.80;99.90;;;;;;5135565;27;37371;-55
2022/05/30 02:22:29;;;;;;;;;;;8.80;99.90;;;;;;5134921;27;38103;-56
2022/05/30 02:24:56;;;;;;;;;;;8.70;99.90;;;;;;5132942;27;36693;-56
2022/05/30 02:27:24;;;;;;;;;;;8.70;99.90;;;;;;5135057;27;37692;-56
2022/05/30 02:29:52;;;;;;;;;;;8.70;99.90;;;;;;5135265;27;36064;-56
2022/05/30 02:32:19;;;;;;;;;;;8.60;99.90;;;;;;5135583;27;35443;-55
2022/05/30 02:37:31;;;;;;;;;;;8.60;99.90;;;;;;5134608;27;40365;-56
2022/05/30 02:39:58;;;;;;;;;;;8.60;99.90;;;;;;5135201;27;37324;-55
2022/05/30 02:42:27;;;;;;;;;;;8.60;99.90;;;;;;5134196;27;36172;-56
2022/05/30 02:44:54;;;;;;;;;;;8.60;99.90;;;;;;5134991;27;34706;-56
2022/05/30 02:47:21;;;;;;;;;;;8.60;99.90;;;;;;5135393;27;38435;-55
2022/05/30 02:49:48;;;;;;;;;;;8.70;99.90;;;;;;5135337;27;36852;-56
2022/05/30 02:52:15;;;;;;;;;;;8.70;99.90;;;;;;5135433;27;37287;-56
2022/05/30 02:54:42;;;;;;;;;;;8.70;99.90;;;;;;5134065;27;37111;-55
2022/05/30 02:57:09;;;;;;;;;;;8.80;99.90;;;;;;5135103;27;37831;-56
2022/05/30 02:59:38;;;;;;;;;;;8.80;99.90;;;;;;5133214;27;37973;-56
2022/05/30 03:02:05;;;;;;;;;;;8.80;99.90;;;;;;5132004;27;36626;-56
2022/05/30 03:04:32;;;;;;;;;;;8.80;99.90;;;;;;5132326;27;35744;-55
2022/05/30 03:06:59;;;;;;;;;;;8.90;99.90;;;;;;5133280;27;38544;-56
2022/05/30 03:09:26;;;;;;;;;;;8.90;99.90;;;;;;5131891;27;37918;-55
2022/05/30 03:11:53;;;;;;;;;;;8.90;99.90;;;;;;5131463;27;38210;-56
2022/05/30 03:14:20;;;;;;;;;;;8.90;99.90;;;;;;5131682;27;35099;-56
2022/05/30 03:16:49;;;;;;;;;;;8.90;99.90;;;;;;5131944;27;39836;-56
2022/05/30 03:19:16;;;;;;;;;;;8.90;99.90;;;;;;5131599;27;37551;-55
2022/05/30 03:21:43;;;;;;;;;;;8.90;99.90;;;;;;5117784;27;35560;-55
2022/05/30 03:24:13;;;;;;;;;;;9.00;99.90;;;;;;5117452;27;36614;-55
2022/05/30 03:26:40;;;;;;;;;;;9.20;99.90;;;;;;5118196;27;37633;-56
2022/05/30 03:29:07;;;;;;;;;;;9.00;99.90;;;;;;5117433;27;37600;-56
2022/05/30 03:31:34;;;;;;;;;;;9.00;99.90;;;;;;5118641;27;35190;-55
2022/05/30 03:34:02;;;;;;;;;;;9.00;99.90;;;;;;5117717;27;36906;-56
2022/05/30 03:36:29;;;;;;;;;;;9.10;99.90;;;;;;5118973;27;38688;-54
2022/05/30 03:38:56;;;;;;;;;;;9.00;99.90;;;;;;5116427;27;37814;-56
2022/05/30 03:41:24;;;;;;;;;;;9.00;99.90;;;;;;5116118;27;35669;-56
2022/05/30 03:43:51;;;;;;;;;;;9.00;99.90;;;;;;5117086;27;35075;-55
2022/05/30 03:46:18;;;;;;;;;;;9.10;99.90;;;;;;5117665;27;38410;-56
2022/05/30 03:48:45;;;;;;;;;;;9.10;99.90;;;;;;5116866;27;36568;-56
2022/05/30 03:51:14;;;;;;;;;;;9.10;99.90;;;;;;5116161;27;36898;-56
2022/05/30 03:53:41;;;;;;;;;;;9.10;99.90;;;;;;5116286;27;38105;-56
2022/05/30 03:56:09;;;;;;;;;;;9.10;99.90;;;;;;5117375;27;37441;-55
2022/05/30 03:58:36;;;;;;;;;;;9.10;99.90;;;;;;5117281;27;36181;-56
2022/05/30 04:01:05;;;;;;;;;;;9.10;99.90;;;;;;5117395;27;37027;-56
2022/05/30 04:03:32;;;;;;;;;;;9.10;99.90;;;;;;5118743;27;35836;-55
2022/05/30 04:05:59;;;;;;;;;;;9.20;99.90;;;;;;5116307;27;38527;-55
2022/05/30 04:08:28;;;;;;;;;;;9.30;99.90;;;;;;5118531;27;37622;-55
2022/05/30 04:10:55;;;;;;;;;;;9.30;99.90;;;;;;5118420;27;35597;-55
2022/05/30 04:13:22;;;;;;;;;;;9.30;99.90;;;;;;5116660;27;36164;-55
2022/05/30 04:15:49;;;;;;;;;;;9.30;99.90;;;;;;5116762;27;38523;-56
2022/05/30 04:18:17;;;;;;;;;;;9.30;99.90;;;;;;5116265;27;39919;-54
2022/05/30 04:20:46;;;;;;;;;;;9.30;99.90;;;;;;5116527;27;37401;-55
2022/05/30 04:23:13;;;;;;;;;;;9.30;99.90;;;;;;5117119;27;37215;-55
2022/05/30 04:25:41;;;;;;;;;;;9.30;99.90;;;;;;5117162;27;36652;-55
2022/05/30 04:28:08;;;;;;;;;;;9.40;99.90;;;;;;5116228;27;37764;-54
2022/05/30 04:30:36;;;;;;;;;;;9.40;99.90;;;;;;5115243;27;37237;-56
2022/05/30 04:33:06;;;;;;;;;;;9.40;99.90;;;;;;5116280;27;37021;-55
2022/05/30 04:35:33;;;;;;;;;;;9.40;99.90;;;;;;5116899;27;37976;-54
2022/05/30 04:38:00;;;;;;;;;;;9.40;99.90;;;;;;5114932;27;38841;-55
2022/05/30 04:40:27;;;;;;;;;;;9.40;99.90;;;;;;5115098;27;36484;-54
2022/05/30 04:42:57;;;;;;;;;;;9.40;99.90;;;;;;5116369;27;37719;-55
2022/05/30 04:45:24;;;;;;;;;;;9.50;99.90;;;;;;5114824;27;38092;-54
2022/05/30 04:47:51;;;;;;;;;;;9.50;99.90;;;;;;5116560;27;37853;-55
2022/05/30 04:50:18;;;;;;;;;;;9.50;99.90;;;;;;5115525;27;37287;-55
2022/05/30 04:52:45;;;;;;;;;;;9.50;99.90;;;;;;5117154;27;37812;-54
2022/05/30 04:55:14;;;;;;;;;;;9.50;99.90;;;;;;5115874;27;36437;-55
2022/05/30 04:57:42;;;;;;;;;;;9.50;99.90;;;;;;5115495;27;37892;-54
2022/05/30 05:00:12;;;;;;;;;;;9.50;99.90;;;;;;5117019;27;36441;-54
2022/05/30 05:02:41;;;;;;;;;;;9.50;99.90;;;;;;5115402;27;37800;-54
2022/05/30 05:05:12;;;;;;;;;;;9.50;99.90;;;;;;5115747;27;37768;-55
2022/05/30 05:07:40;;;;;;;;;;;9.50;99.90;;;;;;5115271;27;38884;-55
2022/05/30 05:10:26;;;;;;;;;;;9.50;99.90;;;;;;5114363;27;38177;-55
2022/05/30 05:12:53;;;;;;;;;;;9.50;99.90;;;;;;5117035;27;37152;-55
2022/05/30 05:15:21;;;;;;;;;;;9.50;99.90;;;;;;5115785;27;37060;-55
2022/05/30 05:17:48;;;;;;;;;;;9.60;99.90;;;;;;5114140;27;37230;-54
2022/05/30 05:20:15;;;;;;;;;;;9.70;99.90;;;;;;5114804;27;36918;-54
2022/05/30 05:22:42;;;;;;;;;;;10.00;99.90;;;;;;5112297;27;37021;-53
2022/05/30 05:25:10;;;;;;;;;;;10.30;99.90;;;;;;5115069;27;39388;-54
2022/05/30 05:27:37;;;;;;;;;;;10.50;99.90;;;;;;5114069;27;37574;-54
2022/05/30 05:30:05;;;;;;;;;;;10.70;99.90;;;;;;5112998;27;35512;-53
2022/05/30 05:32:34;;;;;;;;;;;10.80;99.90;;;;;;5117892;27;37344;-54
2022/05/30 05:35:01;;;;;;;;;;;10.90;99.90;;;;;;5117383;27;37596;-54
2022/05/30 05:37:28;;;;;;;;;;;10.90;99.90;;;;;;5118311;27;37641;-54
2022/05/30 05:39:55;;;;;;;;;;;11.10;99.90;;;;;;5116232;27;37365;-54
2022/05/30 05:42:22;;;;;;;;;;;11.30;99.90;;;;;;5115889;27;35270;-54
2022/05/30 05:44:49;;;;;;;;;;;11.50;99.90;;;;;;5116214;27;38100;-54
2022/05/30 05:47:16;;;;;;;;;;;11.70;99.90;;;;;;5114608;27;37582;-55
2022/05/30 05:49:45;;;;;;;;;;;11.80;99.90;;;;;;5115808;27;37503;-56
2022/05/30 05:52:12;;;;;;;;;;;11.80;99.90;;;;;;5116245;27;37444;-56
2022/05/30 05:54:39;;;;;;;;;;;11.80;99.90;;;;;;5113185;27;36426;-55
2022/05/30 05:57:07;;;;;;;;;;;11.70;99.90;;;;;;5114116;27;37221;-56
2022/05/30 05:59:34;;;;;;;;;;;11.70;99.90;;;;;;5116516;27;37950;-56
2022/05/30 06:02:01;;;;;;;;;;;11.70;99.90;;;;;;5117914;27;36356;-55
2022/05/30 06:04:28;;;;;;;;;;;11.70;99.90;;;;;;5116951;27;39118;-55
2022/05/30 06:06:59;;;;;;;;;;;11.70;99.90;;;;;;5116933;27;37065;-55
2022/05/30 06:09:26;;;;;;;;;;;11.60;99.90;;;;;;5117089;27;39127;-53
2022/05/30 06:11:54;;;;;;;;;;;11.60;99.90;;;;;;5114868;27;36403;-55
2022/05/30 06:14:22;;;;;;;;;;;11.60;99.90;;;;;;5115853;27;36488;-56
2022/05/30 06:16:49;;;;;;;;;;;11.70;99.90;;;;;;5117041;27;37149;-56
2022/05/30 06:19:18;;;;;;;;;;;11.60;99.90;;;;;;5115970;27;38673;-55
2022/05/30 06:21:45;;;;;;;;;;;11.70;99.90;;;;;;5117029;27;36750;-55
2022/05/30 06:24:15;;;;;;;;;;;11.80;99.90;;;;;;5117100;27;38511;-55
2022/05/30 06:26:44;;;;;;;;;;;11.80;99.90;;;;;;5115802;27;36753;-56
2022/05/30 06:29:12;;;;;;;;;;;11.80;99.90;;;;;;5100527;27;35572;-55
2022/05/30 06:31:40;;;;;;;;;;;11.80;99.90;;;;;;5109818;27;36207;-56
2022/05/30 06:34:07;;;;;;;;;;;11.70;99.90;;;;;;5109569;27;38283;-56
2022/05/30 06:36:34;;;;;;;;;;;11.70;99.90;;;;;;5110599;27;36190;-56
2022/05/30 06:39:02;;;;;;;;;;;11.70;99.90;;;;;;5110004;27;38039;-56
2022/05/30 06:41:31;;;;;;;;;;;11.60;99.90;;;;;;5108705;27;36088;-57
2022/05/30 06:44:00;;;;;;;;;;;11.60;99.90;;;;;;5110324;27;40153;-57
2022/05/30 06:46:28;;;;;;;;;;;11.60;99.90;;;;;;5111336;27;36143;-56
2022/05/30 06:48:56;;;;;;;;;;;11.70;99.90;;;;;;5111337;27;36826;-57
2022/05/30 06:51:24;;;;;;;;;;;11.70;99.90;;;;;;5110676;27;36961;-56
2022/05/30 06:53:51;;;;;;;;;;;11.70;99.90;;;;;;5111448;27;36597;-56
2022/05/30 06:56:19;;;;;;;;;;;11.60;99.90;;;;;;5113105;27;39843;-57
2022/05/30 06:58:50;;;;;;;;;;;11.70;99.90;;;;;;5115170;27;36633;-56
2022/05/30 07:01:17;;;;;;;;;;;11.70;99.90;;;;;;5114390;27;37586;-57
2022/05/30 07:03:45;;;;;;;;;;;11.70;99.90;;;;;;5114016;27;38360;-56
2022/05/30 07:06:13;;;;;;;;;;;11.70;99.90;;;;;;5113831;27;38055;-56
2022/05/30 07:08:41;;;;;;;;;;;11.70;99.90;;;;;;5113363;27;36449;-56
2022/05/30 07:11:08;;;;;;;;;;;11.60;99.90;;;;;;5114431;27;37068;-56
2022/05/30 07:13:35;;;;;;;;;;;11.50;99.90;;;;;;5114116;27;36482;-55
2022/05/30 07:16:04;;;;;;;;;;;11.40;99.90;;;;;;5113507;27;39081;-55
2022/05/30 07:18:31;;;;;;;;;;;11.40;99.90;;;;;;5113855;27;37091;-57
2022/05/30 07:20:59;;;;;;;;;;;11.30;99.90;;;;;;5114501;27;37189;-55
2022/05/30 07:23:26;;;;;;;;;;;11.30;99.90;;;;;;5113381;27;35825;-55
2022/05/30 07:25:57;;;;;;;;;;;11.30;99.90;;;;;;5113313;27;37221;-54
2022/05/30 07:28:25;;;;;;;;;;;11.30;99.90;;;;;;5113982;27;37510;-54
2022/05/30 07:30:52;;;;;;;;;;;11.30;99.90;;;;;;5113487;27;36854;-56
2022/05/30 07:33:20;;;;;;;;;;;11.40;99.90;;;;;;5111298;27;37715;-55
2022/05/30 07:35:47;;;;;;;;;;;11.60;99.90;;;;;;5111509;27;38553;-55
2022/05/30 07:38:14;;;;;;;;;;;11.90;99.90;;;;;;5112487;27;35552;-55
2022/05/30 07:40:41;;;;;;;;;;;12.20;99.90;;;;;;5107922;27;37555;-56
2022/05/30 07:43:08;;;;;;;;;;;12.40;99.90;;;;;;5111385;27;37584;-56
2022/05/30 07:45:35;;;;;;;;;;;12.40;99.90;;;;;;5112639;27;38338;-56
2022/05/30 07:48:03;;;;;;;;;;;12.40;99.90;;;;;;5111932;27;38167;-55
2022/05/30 07:50:31;;;;;;;;;;;12.40;99.90;;;;;;5112568;27;35807;-55
2022/05/30 07:52:58;;;;;;;;;;;12.40;99.90;;;;;;5114540;27;37119;-55
2022/05/30 07:55:25;;;;;;;;;;;12.30;99.90;;;;;;5113663;27;37421;-56
2022/05/30 07:57:52;;;;;;;;;;;12.30;99.90;;;;;;5112495;27;36221;-54
2022/05/30 08:00:20;;;;;;;;;;;12.30;99.90;;;;;;5111865;27;37117;-55
2022/05/30 08:02:47;;;;;;;;;;;12.20;99.90;;;;;;5111173;27;39772;-55
2022/05/30 08:05:15;;;;;;;;;;;12.40;99.90;;;;;;5112716;27;37971;-55
2022/05/30 08:07:44;;;;;;;;;;;12.40;99.90;;;;;;5111360;27;37457;-55
2022/05/30 08:10:11;;;;;;;;;;;12.60;99.90;;;;;;5112404;27;37589;-54
2022/05/30 08:52:33;;;;;;;;;;;11.50;99.90;;;;;;5090830;22;20401;-56
2022/05/30 08:55:05;;;;;;;;;;;11.60;99.90;;;;;;5005033;22;35870;-47
2022/05/30 09:00:09;;;;;;;;;;;11.70;99.90;;;;;;5756218;22;19928;-47
2022/05/30 09:02:39;;;;;;;;;;;11.70;99.90;;;;;;5059774;28;37736;-47
2022/05/30 09:05:07;;;;;;;;;;;11.70;99.90;;;;;;5059650;28;36178;-47
2022/05/30 09:07:39;;;;;;;;;;;11.80;99.90;;;;;;5059167;28;38554;-46
2022/05/30 09:10:09;;;;;;;;;;;11.80;99.90;;;;;;5061514;28;38557;-49
2022/05/30 09:12:39;;;;;;;;;;;11.80;99.90;;;;;;5060715;28;37257;-47
2022/05/30 09:15:08;;;;;;;;;;;11.80;99.90;;;;;;5062045;28;37427;-46
2022/05/30 09:17:38;;;;;;;;;;;11.90;99.90;;;;;;5059163;28;37421;-49
2022/05/30 09:20:06;;;;;;;;;;;11.90;99.90;;;;;;5061653;28;38220;-47
2022/05/30 09:22:34;;;;;;;;;;;12.00;99.90;;;;;;5061868;28;35626;-47
2022/05/30 09:27:48;;;;;;;;;;;12.10;99.90;;;;;;5061993;28;37850;-47
2022/05/30 09:30:18;;;;;;;;;;;12.20;99.90;;;;;;5060845;28;37374;-47
2022/05/30 09:32:47;;;;;;;;;;;12.20;99.90;;;;;;5060603;28;35724;-48
2022/05/30 09:35:26;;;;;;;;;;;12.30;99.90;;;;;;5061030;28;37210;-48
2022/05/30 09:38:04;;;;;;;;;;;12.30;99.90;;;;;;5059518;28;40261;-47
2022/05/30 09:40:38;;;;;;;;;;;12.40;99.90;;;;;;5053245;28;36069;-47
2022/05/30 09:43:07;;;;;;;;;;;12.50;99.90;;;;;;5059525;28;36675;-47
2022/05/30 09:45:34;;;;;;;;;;;12.70;99.90;;;;;;5059906;28;39128;-46
2022/05/30 09:48:02;;;;;;;;;;;12.80;99.90;;;;;;5059677;28;37962;-47
2022/05/30 09:50:29;;;;;;;;;;;12.90;99.90;;;;;;5060281;28;38035;-48
2022/05/30 09:52:56;;;;;;;;;;;13.00;99.90;;;;;;5061072;28;38803;-47
2022/05/30 09:55:25;;;;;;;;;;;13.20;99.90;;;;;;5060374;28;38419;-46
2022/05/30 09:57:54;;;;;;;;;;;13.30;99.90;;;;;;5060820;28;38846;-47
2022/05/30 10:00:32;;;;;;;;;;;13.30;99.90;;;;;;5059893;28;37341;-47
2022/05/30 10:03:00;;;;;;;;;;;13.30;99.90;;;;;;5060475;28;40094;-46
2022/05/30 10:05:28;;;;;;;;;;;13.20;99.90;;;;;;5056912;28;37921;-49
2022/05/30 10:07:57;;;;;;;;;;;13.20;99.90;;;;;;5059221;28;38562;-46
2022/05/30 10:10:25;;;;;;;;;;;13.10;99.90;;;;;;5060928;28;37498;-46
2022/05/30 10:12:58;;;;;;;;;;;13.00;99.90;;;;;;5060341;28;36575;-46
2022/05/30 10:15:26;;;;;;;;;;;12.90;99.90;;;;;;5061532;28;35904;-47
2022/05/30 10:17:55;;;;;;;;;;;12.80;99.90;;;;;;5060536;28;37802;-48
2022/05/30 10:20:24;;;;;;;;;;;12.70;99.90;;;;;;5061301;28;36551;-46
2022/05/30 10:28:50;;;;;;;;;;;12.30;99.90;;;;;;5061686;28;37530;-51
2022/05/30 10:31:22;;;;;;;;;;;12.20;99.90;;;;;;5063166;28;37526;-46
2022/05/30 10:34:08;;;;;;;;;;;12.00;99.90;;;;;;5063821;28;37497;-46
2022/05/30 10:36:38;;;;;;;;;;;11.90;99.90;;;;;;5064406;28;38799;-45
2022/05/30 10:39:11;;;;;;;;;;;11.80;99.90;;;;;;5064757;28;37779;-47
2022/05/30 10:41:43;;;;;;;;;;;11.60;99.90;;;;;;5064862;28;36554;-47
2022/05/30 10:44:15;;;;;;;;;;;11.60;99.90;;;;;;5064589;28;36745;-48
2022/05/30 10:46:45;;;;;;;;;;;11.60;99.90;;;;;;5063975;28;36605;-46
2022/05/30 10:49:14;;;;;;;;;;;11.60;99.90;;;;;;5064181;28;36608;-50
2022/05/30 10:51:45;;;;;;;;;;;11.50;99.90;;;;;;5063729;28;36275;-46
2022/05/30 10:54:16;;;;;;;;;;;11.50;99.90;;;;;;5064472;28;37333;-46
2022/05/30 10:56:45;;;;;;;;;;;11.60;99.90;;;;;;5064163;28;36256;-46
2022/05/30 10:59:17;;;;;;;;;;;11.60;99.90;;;;;;5065252;28;39394;-47
2022/05/30 11:01:47;;;;;;;;;;;11.70;99.90;;;;;;5063735;28;38149;-48
2022/05/30 11:04:22;;;;;;;;;;;11.70;99.90;;;;;;5064335;28;36754;-49
2022/05/30 11:06:50;;;;;;;;;;;11.70;99.90;;;;;;5064808;28;36416;-47
2022/05/30 11:09:20;;;;;;;;;;;11.70;99.90;;;;;;5064227;28;37670;-46
2022/05/30 11:11:49;;;;;;;;;;;11.80;99.90;;;;;;5063730;28;36179;-46
2022/05/30 11:14:21;;;;;;;;;;;11.80;99.90;;;;;;5065262;28;35512;-47
2022/05/30 11:16:51;;;;;;;;;;;11.80;99.90;;;;;;5062883;28;36350;-48
2022/05/30 11:19:20;;;;;;;;;;;11.80;99.90;;;;;;5064071;28;38844;-49
2022/05/30 11:21:49;;;;;;;;;;;11.80;99.90;;;;;;5064500;28;37270;-47
2022/05/30 11:24:16;;;;;;;;;;;11.90;99.90;;;;;;5064504;28;37096;-47
2022/05/30 11:26:58;;;;;;;;;;;12.00;99.90;;;;;;5063500;28;37815;-46
2022/05/30 11:29:34;;;;;;;;;;;12.00;99.90;;;;;;5062872;28;37655;-45
2022/05/30 11:32:03;;;;;;;;;;;12.00;99.90;;;;;;5061414;28;38790;-47
2022/05/30 11:34:35;;;;;;;;;;;12.10;99.90;;;;;;5061628;28;37144;-47
2022/05/30 11:37:07;;;;;;;;;;;12.10;99.90;;;;;;5060822;28;35554;-49
2022/05/30 11:39:43;;;;;;;;;;;12.20;99.90;;;;;;5062352;28;37613;-46
2022/05/30 11:42:16;;;;;;;;;;;12.20;99.90;;;;;;5061227;28;37509;-47
2022/05/30 11:44:49;;;;;;;;;;;12.30;99.90;;;;;;5062724;28;35486;-48
2022/05/30 11:47:43;;;;;;;;;;;12.40;99.90;;;;;;5063588;28;37026;-49
2022/05/30 11:50:19;;;;;;;;;;;12.40;99.90;;;;;;5009991;28;38125;-47
2022/05/30 11:52:58;;;;;;;;;;;12.40;99.90;;;;;;5063471;28;37614;-49
2022/05/30 11:55:26;;;;;;;;;;;12.30;99.90;;;;;;5063561;28;37840;-47
2022/05/30 11:57:55;;;;;;;;;;;12.30;99.90;;;;;;5063013;28;37047;-47
2022/05/30 12:00:34;;;;;;;;;;;12.20;99.90;;;;;;5053969;28;40878;-48
2022/05/30 12:03:09;;;;;;;;;;;12.10;99.90;;;;;;5060444;28;37312;-49
2022/05/30 12:05:52;;;;;;;;;;;12.00;99.90;;;;;;5061379;28;36625;-48
2022/05/30 12:08:28;;;;;;;;;;;11.90;99.90;;;;;;5027074;28;36677;-50
2022/05/30 12:11:06;;;;;;;;;;;11.80;99.90;;;;;;5063316;28;38002;-50
2022/05/30 12:13:41;;;;;;;;;;;11.80;99.90;;;;;;5062450;28;37379;-46
2022/05/30 12:16:16;;;;;;;;;;;11.80;99.90;;;;;;5062675;28;36771;-46
2022/05/30 12:24:34;;;;;;;;;;;11.90;99.90;;;;;;5063525;28;39342;-48
2022/05/30 12:27:04;;;;;;;;;;;12.00;99.90;;;;;;5062600;28;37091;-49
2022/05/30 12:29:45;;;;;;;;;;;12.00;99.90;;;;;;5062979;28;36627;-47
2022/05/30 12:32:16;;;;;;;;;;;12.20;99.90;;;;;;5062710;28;37720;-47
2022/05/30 12:35:03;;;;;;;;;;;12.30;99.90;;;;;;5063530;28;37126;-47
2022/05/30 12:37:47;;;;;;;;;;;12.40;99.90;;;;;;5064308;28;36635;-48
2022/05/30 12:40:23;;;;;;;;;;;12.50;99.90;;;;;;5063967;28;35223;-47
2022/05/30 12:42:57;;;;;;;;;;;12.50;99.90;;;;;;5063941;28;38327;-47
2022/05/30 12:45:35;;;;;;;;;;;12.60;99.90;;;;;;5064103;28;38927;-47
2022/05/30 12:48:11;;;;;;;;;;;12.60;99.90;;;;;;5064136;28;40281;-49
2022/05/30 12:50:57;;;;;;;;;;;12.60;99.90;;;;;;5063511;28;36798;-46
2022/05/30 12:53:26;;;;;;;;;;;12.50;99.90;;;;;;5061493;28;38569;-45
2022/05/30 12:55:54;;;;;;;;;;;12.50;99.90;;;;;;5061939;28;38516;-46
2022/05/30 12:58:22;;;;;;;;;;;12.50;99.90;;;;;;5061449;28;37013;-44
2022/05/30 13:00:54;;;;;;;;;;;12.50;99.90;;;;;;5061589;28;37372;-46
2022/05/30 13:03:32;;;;;;;;;;;12.50;99.90;;;;;;5061798;28;38378;-46
2022/05/30 13:06:15;;;;;;;;;;;12.40;99.90;;;;;;5064051;28;36383;-48
2022/05/30 13:09:06;;;;;;;;;;;12.40;99.90;;;;;;5061855;28;37529;-51
2022/05/30 13:11:48;;;;;;;;;;;12.30;99.90;;;;;;5061961;28;35164;-50
2022/05/30 13:14:18;;;;;;;;;;;12.20;99.90;;;;;;5059717;28;38689;-46
2022/05/30 13:16:48;;;;;;;;;;;12.10;99.90;;;;;;5062614;28;36496;-50
2022/05/30 13:19:17;;;;;;;;;;;12.10;99.90;;;;;;5062415;28;37153;-48
2022/05/30 13:21:46;;;;;;;;;;;12.10;99.90;;;;;;5062237;28;36458;-47
2022/05/30 13:24:25;;;;;;;;;;;12.10;99.90;;;;;;5063321;28;37991;-45
2022/05/30 13:26:53;;;;;;;;;;;12.20;99.90;;;;;;5062638;28;38193;-50
2022/05/30 13:29:20;;;;;;;;;;;12.30;99.90;;;;;;5062904;28;36499;-47
2022/05/30 13:31:49;;;;;;;;;;;12.40;99.90;;;;;;5062034;28;36228;-47
2022/05/30 13:34:22;;;;;;;;;;;12.60;99.90;;;;;;5061512;28;38376;-48
2022/05/30 13:36:49;;;;;;;;;;;12.70;99.90;;;;;;5061906;28;39247;-48
2022/05/30 13:39:16;;;;;;;;;;;12.80;99.90;;;;;;5062723;28;36723;-47
2022/05/30 13:41:43;;;;;;;;;;;12.90;99.90;;;;;;5061838;28;37780;-47
2022/05/30 13:44:11;;;;;;;;;;;12.90;99.90;;;;;;5062851;28;36446;-48
2022/05/30 13:46:40;;;;;;;;;;;12.90;99.90;;;;;;5063553;28;37807;-50
2022/05/30 13:49:07;;;;;;;;;;;12.90;99.90;;;;;;5062798;28;37434;-48
2022/05/30 13:51:37;;;;;;;;;;;12.80;99.90;;;;;;5062867;28;36943;-46
2022/05/30 13:54:06;;;;;;;;;;;12.80;99.90;;;;;;5062389;28;37543;-48
2022/05/30 13:56:34;;;;;;;;;;;12.80;99.90;;;;;;5057681;28;37799;-47
2022/05/30 13:59:03;;;;;;;;;;;12.80;99.90;;;;;;5060484;28;38291;-46
2022/05/30 14:01:33;;;;;;;;;;;12.90;99.90;;;;;;5060464;28;36194;-47
2022/05/30 14:04:02;;;;;;;;;;;12.90;99.90;;;;;;5061260;28;38390;-47
2022/05/30 14:06:31;;;;;;;;;;;12.80;99.90;;;;;;5061609;28;39851;-47
2022/05/30 14:09:00;;;;;;;;;;;12.90;99.90;;;;;;5061590;28;38173;-51
2022/05/30 14:11:30;;;;;;;;;;;12.80;99.90;;;;;;5061304;28;37701;-47
2022/05/30 14:13:59;;;;;;;;;;;12.80;99.90;;;;;;5061297;28;37152;-47
2022/05/30 14:16:36;;;;;;;;;;;12.70;99.90;;;;;;5060908;28;37475;-46
2022/05/30 14:19:04;;;;;;;;;;;12.70;99.90;;;;;;5061233;28;37375;-50
2022/05/30 14:21:32;;;;;;;;;;;12.70;99.90;;;;;;5061362;28;36912;-48
2022/05/30 14:24:13;;;;;;;;;;;12.70;99.90;;;;;;5060871;28;37807;-49
2022/05/30 14:26:41;;;;;;;;;;;12.70;99.90;;;;;;5061386;28;37348;-46
2022/05/30 14:29:09;;;;;;;;;;;12.70;99.90;;;;;;5061656;28;36799;-47
2022/05/30 14:31:37;;;;;;;;;;;12.70;99.90;;;;;;5061340;28;36854;-49
2022/05/30 14:34:12;;;;;;;;;;;12.70;99.90;;;;;;5060373;28;37432;-50
2022/05/30 14:36:41;;;;;;;;;;;12.70;99.90;;;;;;5060879;28;36236;-47
2022/05/30 14:39:14;;;;;;;;;;;12.60;99.90;;;;;;5061105;28;36549;-48
2022/05/30 14:41:51;;;;;;;;;;;12.60;99.90;;;;;;5060821;28;37046;-49
2022/05/30 14:44:19;;;;;;;;;;;12.60;99.90;;;;;;5060568;28;39096;-50
2022/05/30 14:46:46;;;;;;;;;;;12.60;99.90;;;;;;5060911;28;36277;-48
2022/05/30 14:49:14;;;;;;;;;;;12.50;99.90;;;;;;5060403;28;39741;-48
2022/05/30 14:51:51;;;;;;;;;;;12.50;99.90;;;;;;5061176;28;37415;-48
2022/05/30 14:54:25;;;;;;;;;;;12.50;99.90;;;;;;5061072;28;37547;-46
2022/05/30 14:56:52;;;;;;;;;;;12.50;99.90;;;;;;5059896;28;38425;-46
2022/05/30 15:38:26;;;;;;;;;;;12.40;99.90;;;;;;5046958;28;20569;-47
2022/05/30 15:41:23;;;;;;;;;;;12.40;99.90;;;;;;5655518;22;37613;-54
2022/05/30 15:43:50;;;;;;;;;;;12.40;99.90;;;;;;4976961;28;35838;-55
2022/05/30 15:46:17;;;;;;;;;;;12.50;99.90;;;;;;4985207;28;35192;-56
2022/05/30 15:48:44;;;;;;;;;;;12.40;99.90;;;;;;4986001;28;37991;-55
2022/05/30 15:51:13;;;;;;;;;;;12.40;99.90;;;;;;4985779;28;36248;-55
2022/05/30 15:59:12;;;;;;;;;;;12.50;99.90;;;;;;4989359;28;40340;-57
2022/05/30 16:01:41;;;;;;;;;;;12.50;99.90;;;;;;4989719;28;37274;-56
2022/05/30 16:04:08;;;;;;;;;;;12.50;99.90;;;;;;4988758;28;36651;-56
2022/05/30 16:06:36;;;;;;;;;;;12.50;99.90;;;;;;4990241;28;36618;-55
2022/05/30 16:09:05;;;;;;;;;;;12.60;99.90;;;;;;4989553;28;39314;-55
2022/05/30 16:11:33;;;;;;;;;;;12.60;99.90;;;;;;4989745;28;37249;-55
2022/05/30 16:14:00;;;;;;;;;;;12.50;99.90;;;;;;4988475;28;37041;-56
2022/05/30 16:16:27;;;;;;;;;;;12.50;99.90;;;;;;4988108;28;37090;-56
2022/05/30 16:18:54;;;;;;;;;;;12.50;99.90;;;;;;4987977;28;38011;-56
2022/05/30 16:21:23;;;;;;;;;;;12.50;99.90;;;;;;4988570;28;38174;-56